createdAt,value
2022-10-20T00:00:06.850Z,11.18
2022-10-20T00:02:08.471Z,11.60
2022-10-20T00:04:10.084Z,12.05
2022-10-20T00:06:20.281Z,12.32
2022-10-20T00:08:21.915Z,13.27
2022-10-20T00:10:23.534Z,12.15
2022-10-20T00:12:25.184Z,12.10
2022-10-20T00:14:26.844Z,12.18
2022-10-20T00:16:31.254Z,12.05
2022-10-20T00:18:33.260Z,11.48
2022-10-20T00:20:34.872Z,12.20
2022-10-20T00:22:36.767Z,10.98
2022-10-20T00:24:38.593Z,11.93
2022-10-20T00:26:40.459Z,11.93
2022-10-20T00:28:43.163Z,11.70
2022-10-20T00:30:44.957Z,12.10
2022-10-20T00:32:47.989Z,11.32
2022-10-20T00:34:49.548Z,11.82
2022-10-20T00:36:51.531Z,11.85
2022-10-20T00:39:00.745Z,12.13
2022-10-20T00:41:05.340Z,12.23
2022-10-20T00:43:13.137Z,12.45
2022-10-20T00:45:17.619Z,12.85
2022-10-20T00:47:54.647Z,12.45
2022-10-20T00:50:01.169Z,12.68
2022-10-20T00:52:03.088Z,12.43
2022-10-20T00:54:12.011Z,12.52
2022-10-20T00:56:14.697Z,12.65
2022-10-20T00:58:16.966Z,12.70
2022-10-20T01:00:18.788Z,13.35
2022-10-20T01:02:20.607Z,13.45
2022-10-20T01:04:22.956Z,13.70
2022-10-20T01:06:24.665Z,12.55
2022-10-20T01:08:26.315Z,12.45
2022-10-20T01:10:37.423Z,13.13
2022-10-20T01:12:54.009Z,13.60
2022-10-20T01:20:04.697Z,13.25
2022-10-20T01:22:09.458Z,13.77
2022-10-20T01:24:26.257Z,12.70
2022-10-20T01:26:33.758Z,13.23
2022-10-20T01:29:07.679Z,13.38
2022-10-20T01:31:26.694Z,13.60
2022-10-20T01:33:39.914Z,13.18
2022-10-20T01:36:00.399Z,13.57
2022-10-20T01:38:14.754Z,13.18
2022-10-20T01:41:05.730Z,13.55
2022-10-20T01:43:11.934Z,13.70
2022-10-20T01:45:15.623Z,14.50
2022-10-20T01:47:18.516Z,13.75
2022-10-20T01:49:20.364Z,13.02
2022-10-20T01:51:22.018Z,13.77
2022-10-20T01:53:23.635Z,14.27
2022-10-20T01:55:25.755Z,13.50
2022-10-20T01:57:52.054Z,13.82
2022-10-20T02:00:17.293Z,13.98
2022-10-20T02:02:21.556Z,14.32
2022-10-20T02:04:33.189Z,14.55
2022-10-20T02:06:37.498Z,14.77
2022-10-20T02:08:55.824Z,14.93
2022-10-20T02:11:05.462Z,12.85
2022-10-20T02:13:10.184Z,14.02
2022-10-20T02:15:17.261Z,15.13
2022-10-20T02:17:19.893Z,14.48
2022-10-20T02:19:25.809Z,14.40
2022-10-20T02:21:27.818Z,14.27
2022-10-20T02:23:35.132Z,15.05
2022-10-20T02:25:40.498Z,14.25
2022-10-20T02:27:46.727Z,14.50
2022-10-20T02:29:55.781Z,14.27
2022-10-20T02:31:58.234Z,14.95
2022-10-20T02:34:00.015Z,14.48
2022-10-20T02:36:05.611Z,15.40
2022-10-20T02:38:07.355Z,14.18
2022-10-20T02:40:09.473Z,13.75
2022-10-20T02:42:12.425Z,13.80
2022-10-20T02:44:14.015Z,15.15
2022-10-20T02:46:17.308Z,14.82
2022-10-20T02:48:19.187Z,15.43
2022-10-20T02:50:20.836Z,15.18
2022-10-20T02:52:22.490Z,14.38
2022-10-20T02:54:24.164Z,14.68
2022-10-20T02:56:27.625Z,14.95
2022-10-20T02:58:31.998Z,16.40
2022-10-20T03:00:34.113Z,17.15
2022-10-20T03:02:35.889Z,14.73
2022-10-20T03:04:37.481Z,14.65
2022-10-20T03:06:39.955Z,15.48
2022-10-20T03:08:42.754Z,15.20
2022-10-20T03:10:44.458Z,15.75
2022-10-20T03:12:46.094Z,14.98
2022-10-20T03:14:47.736Z,16.10
2022-10-20T03:16:49.583Z,14.93
2022-10-20T03:18:51.431Z,15.65
2022-10-20T03:20:54.265Z,16.35
2022-10-20T03:22:55.970Z,14.82
2022-10-20T03:24:57.572Z,16.02
2022-10-20T03:27:06.035Z,15.05
2022-10-20T03:29:07.853Z,13.85
2022-10-20T03:31:10.130Z,16.02
2022-10-20T03:33:11.973Z,16.52
2022-10-20T03:35:13.721Z,15.82
2022-10-20T03:37:15.339Z,16.77
2022-10-20T03:39:17.468Z,15.82
2022-10-20T03:41:19.118Z,15.73
2022-10-20T03:43:20.961Z,15.18
2022-10-20T03:45:22.647Z,15.07
2022-10-20T03:47:24.379Z,15.45
2022-10-20T03:49:26.106Z,16.38
2022-10-20T03:51:27.753Z,15.73
2022-10-20T03:53:29.928Z,15.77
2022-10-20T03:55:31.803Z,14.80
2022-10-20T03:57:33.670Z,16.10
2022-10-20T03:59:35.551Z,16.73
2022-10-20T04:01:37.603Z,16.58
2022-10-20T04:03:39.276Z,16.13
2022-10-20T04:05:41.126Z,15.82
2022-10-20T04:07:42.975Z,15.70
2022-10-20T04:09:44.560Z,15.77
2022-10-20T04:11:46.247Z,16.20
2022-10-20T04:13:48.020Z,16.23
2022-10-20T04:15:49.971Z,16.15
2022-10-20T04:17:51.556Z,16.63
2022-10-20T04:19:53.215Z,17.45
2022-10-20T04:21:54.830Z,16.80
2022-10-20T04:23:56.544Z,15.73
2022-10-20T04:25:58.141Z,15.90
2022-10-20T04:28:00.249Z,16.48
2022-10-20T04:30:01.914Z,16.70
2022-10-20T04:32:03.998Z,15.93
2022-10-20T04:34:05.800Z,17.65
2022-10-20T04:36:12.000Z,15.95
2022-10-20T04:38:13.592Z,16.02
2022-10-20T04:40:15.229Z,17.63
2022-10-20T04:42:18.180Z,17.13
2022-10-20T04:44:19.918Z,16.67
2022-10-20T04:46:21.589Z,16.70
2022-10-20T04:48:23.554Z,16.38
2022-10-20T04:50:25.179Z,16.65
2022-10-20T04:52:28.869Z,17.33
2022-10-20T04:54:30.495Z,16.65
2022-10-20T04:56:32.158Z,17.45
2022-10-20T04:58:34.763Z,17.20
2022-10-20T05:00:37.776Z,16.77
2022-10-20T05:02:39.471Z,17.30
2022-10-20T05:04:41.141Z,17.10
2022-10-20T05:06:42.732Z,18.23
2022-10-20T05:08:46.675Z,15.85
2022-10-20T05:10:48.460Z,16.33
2022-10-20T05:12:50.124Z,17.58
2022-10-20T05:14:51.847Z,16.65
2022-10-20T05:16:57.273Z,18.45
2022-10-20T05:18:59.150Z,17.00
2022-10-20T05:21:09.447Z,17.27
2022-10-20T05:23:11.966Z,16.75
2022-10-20T05:25:35.138Z,17.85
2022-10-20T05:27:35.238Z,18.00
2022-10-20T05:29:36.814Z,17.70
2022-10-20T05:31:40.600Z,17.63
2022-10-20T05:33:51.123Z,17.75
2022-10-20T05:35:52.759Z,16.70
2022-10-20T05:37:54.643Z,17.83
2022-10-20T05:39:56.274Z,18.40
2022-10-20T05:41:57.954Z,17.73
2022-10-20T05:44:02.293Z,17.90
2022-10-20T05:46:04.908Z,17.65
2022-10-20T05:48:06.717Z,18.52
2022-10-20T05:50:09.594Z,17.65
2022-10-20T05:52:11.387Z,17.35
2022-10-20T05:54:13.925Z,17.85
2022-10-20T05:56:18.724Z,17.10
2022-10-20T05:58:22.969Z,16.95
2022-10-20T06:00:30.742Z,18.20
2022-10-20T06:02:32.523Z,18.25
2022-10-20T06:04:34.297Z,17.17
2022-10-20T06:06:36.327Z,17.55
2022-10-20T06:08:37.952Z,18.35
2022-10-20T06:10:39.551Z,18.33
2022-10-20T06:12:41.275Z,18.50
2022-10-20T06:14:42.898Z,17.98
2022-10-20T06:16:45.043Z,18.75
2022-10-20T06:18:46.804Z,19.30
2022-10-20T06:20:48.444Z,17.58
2022-10-20T06:22:50.103Z,17.45
2022-10-20T06:24:51.820Z,17.67
2022-10-20T06:27:00.891Z,20.02
2022-10-20T06:29:04.955Z,19.00
2022-10-20T06:31:16.995Z,19.23
2022-10-20T06:33:18.581Z,19.33
2022-10-20T06:35:20.193Z,19.30
2022-10-20T06:37:21.846Z,19.90
2022-10-20T06:39:24.690Z,20.05
2022-10-20T06:41:27.577Z,19.08
2022-10-20T06:43:29.273Z,19.27
2022-10-20T06:45:31.132Z,19.98
2022-10-20T06:47:32.830Z,19.23
2022-10-20T06:49:34.573Z,20.85
2022-10-20T06:51:37.533Z,20.73
2022-10-20T06:53:42.694Z,19.30
2022-10-20T06:56:02.323Z,20.55
2022-10-20T06:58:17.059Z,20.85
2022-10-20T07:00:18.904Z,19.60
2022-10-20T07:02:21.933Z,21.38
2022-10-20T07:04:23.956Z,21.15
2022-10-20T07:06:30.832Z,20.40
2022-10-20T07:08:34.976Z,21.08
2022-10-20T07:10:36.663Z,19.75
2022-10-20T07:12:38.810Z,19.42
2022-10-20T07:14:40.583Z,19.27
2022-10-20T07:16:42.318Z,19.63
2022-10-20T07:20:51.254Z,17.88
2022-10-20T07:22:52.973Z,19.15
2022-10-20T07:24:54.722Z,18.00
2022-10-20T07:27:06.435Z,20.70
2022-10-20T07:29:09.719Z,18.63
2022-10-20T07:31:20.782Z,18.35
2022-10-20T07:33:22.899Z,18.13
2022-10-20T07:35:24.585Z,18.02
2022-10-20T07:37:26.274Z,17.55
2022-10-20T07:39:28.815Z,18.55
2022-10-20T07:41:31.490Z,17.63
2022-10-20T07:43:33.200Z,17.70
2022-10-20T07:45:34.945Z,18.45
2022-10-20T07:47:38.288Z,17.70
2022-10-20T07:49:45.102Z,18.10
2022-10-20T07:51:47.027Z,17.50
2022-10-20T07:53:49.558Z,19.05
2022-10-20T07:55:51.194Z,18.15
2022-10-20T07:57:52.954Z,17.73
2022-10-20T07:59:54.644Z,17.80
2022-10-20T08:01:58.904Z,17.85
2022-10-20T08:04:01.667Z,18.70
2022-10-20T08:06:04.801Z,16.77
2022-10-20T08:08:06.581Z,19.42
2022-10-20T08:10:08.682Z,18.40
2022-10-20T08:12:10.351Z,18.50
2022-10-20T08:14:11.977Z,19.55
2022-10-20T08:16:17.604Z,18.85
2022-10-20T08:18:19.356Z,18.55
2022-10-20T08:20:33.285Z,18.88
2022-10-20T08:22:35.744Z,19.77
2022-10-20T08:24:37.563Z,18.92
2022-10-20T08:26:39.322Z,18.52
2022-10-20T08:28:41.158Z,19.98
2022-10-20T08:30:42.824Z,20.95
2022-10-20T08:32:44.654Z,21.10
2022-10-20T08:34:46.708Z,19.35
2022-10-20T08:36:48.382Z,18.60
2022-10-20T08:38:50.016Z,19.45
2022-10-20T08:40:51.899Z,19.42
2022-10-20T08:42:54.326Z,19.73
2022-10-20T08:45:00.370Z,19.15
2022-10-20T08:47:04.142Z,17.25
2022-10-20T08:49:20.009Z,18.45
2022-10-20T08:51:24.429Z,17.67
2022-10-20T08:53:27.636Z,17.50
2022-10-20T08:55:33.756Z,15.63
2022-10-20T08:57:36.685Z,16.27
2022-10-20T08:59:39.609Z,15.93
2022-10-20T09:01:41.642Z,16.65
2022-10-20T09:03:44.156Z,15.30
2022-10-20T09:05:49.861Z,15.43
2022-10-20T09:07:52.552Z,15.05
2022-10-20T09:10:02.745Z,15.77
2022-10-20T09:12:07.342Z,15.15
2022-10-20T09:14:11.130Z,14.50
2022-10-20T09:16:41.613Z,16.10
2022-10-20T09:19:01.319Z,14.65
2022-10-20T09:21:09.110Z,14.60
2022-10-20T09:23:35.261Z,14.10
2022-10-20T09:25:37.161Z,14.48
2022-10-20T09:27:43.003Z,15.68
2022-10-20T09:29:45.673Z,13.77
2022-10-20T09:31:55.294Z,14.43
2022-10-20T09:34:00.057Z,14.82
2022-10-20T09:36:14.613Z,15.20
2022-10-20T09:38:22.589Z,13.90
2022-10-20T09:40:26.603Z,14.70
2022-10-20T09:42:35.460Z,13.27
2022-10-20T09:44:49.905Z,14.13
2022-10-20T09:46:54.504Z,13.60
2022-10-20T09:48:57.534Z,13.63
2022-10-20T09:51:00.447Z,13.88
2022-10-20T09:53:06.584Z,14.02
2022-10-20T09:55:25.230Z,14.57
2022-10-20T09:57:27.171Z,13.00
2022-10-20T09:59:44.509Z,13.02
2022-10-20T10:02:00.525Z,12.93
2022-10-20T10:04:02.305Z,12.55
2022-10-20T10:06:28.360Z,10.57
2022-10-20T10:08:45.148Z,10.63
2022-10-20T10:11:02.335Z,11.48
2022-10-20T10:15:33.951Z,11.90
2022-10-20T10:17:41.880Z,11.82
2022-10-20T10:19:52.520Z,12.38
2022-10-20T10:22:00.492Z,11.52
2022-10-20T10:24:04.360Z,10.80
2022-10-20T10:26:34.793Z,10.63
2022-10-20T10:28:39.343Z,11.35
2022-10-20T10:30:45.764Z,10.30
2022-10-20T10:32:49.989Z,8.95
2022-10-20T10:35:04.894Z,7.82
2022-10-20T10:37:14.229Z,7.40
2022-10-20T10:39:16.573Z,8.82
2022-10-20T10:41:29.335Z,8.95
2022-10-20T10:43:55.401Z,8.98
2022-10-20T10:45:57.029Z,8.82
2022-10-20T10:48:16.455Z,6.97
2022-10-20T10:50:27.083Z,7.32
2022-10-20T10:52:56.832Z,7.20
2022-10-20T10:55:43.754Z,8.13
2022-10-20T11:00:15.129Z,8.15
2022-10-20T11:02:39.062Z,7.53
2022-10-20T11:05:02.557Z,6.72
2022-10-20T11:07:40.772Z,7.35
2022-10-20T11:09:59.866Z,6.80
2022-10-20T11:12:13.274Z,8.02
2022-10-20T11:14:36.234Z,7.50
2022-10-20T11:16:59.592Z,5.90
2022-10-20T11:19:30.737Z,5.80
2022-10-20T11:22:02.683Z,6.35
2022-10-20T11:24:07.375Z,5.72
2022-10-20T11:26:23.119Z,6.38
2022-10-20T11:28:32.020Z,6.75
2022-10-20T11:30:34.252Z,7.63
2022-10-20T11:33:09.097Z,6.47
2022-10-20T11:35:22.986Z,6.57
2022-10-20T11:37:36.692Z,6.13
2022-10-20T11:40:10.701Z,6.43
2022-10-20T11:42:30.746Z,6.60
2022-10-20T11:44:39.482Z,6.30
2022-10-20T11:47:02.543Z,6.18
2022-10-20T11:49:04.590Z,6.13
2022-10-20T11:51:31.150Z,5.47
2022-10-20T11:53:35.696Z,5.63
2022-10-20T11:56:02.313Z,6.10
2022-10-20T11:58:36.784Z,5.00
2022-10-20T12:00:54.048Z,6.25
2022-10-20T12:03:24.903Z,5.45
2022-10-20T12:05:47.616Z,4.78
2022-10-20T12:08:29.610Z,6.07
2022-10-20T12:10:43.067Z,8.65
2022-10-20T12:12:50.513Z,8.13
2022-10-20T12:15:02.568Z,7.63
2022-10-20T12:17:13.143Z,8.60
2022-10-20T12:19:21.751Z,9.23
2022-10-20T12:21:56.789Z,8.68
2022-10-20T12:24:03.216Z,8.20
2022-10-20T12:26:24.787Z,9.57
2022-10-20T12:28:29.525Z,9.10
2022-10-20T12:30:43.014Z,9.10
2022-10-20T12:32:53.592Z,9.40
2022-10-20T12:34:56.891Z,8.70
2022-10-20T12:37:29.427Z,9.18
2022-10-20T12:39:31.111Z,8.70
2022-10-20T12:41:35.720Z,9.00
2022-10-20T12:43:53.202Z,8.82
2022-10-20T12:45:59.577Z,10.27
2022-10-20T12:48:03.129Z,8.63
2022-10-20T12:50:28.127Z,8.20
2022-10-20T12:52:40.417Z,7.70
2022-10-20T12:54:48.346Z,7.30
2022-10-20T12:57:05.139Z,6.82
2022-10-20T12:59:19.951Z,7.50
2022-10-20T13:01:21.768Z,7.60
2022-10-20T13:03:32.522Z,7.88
2022-10-20T13:07:47.093Z,6.50
2022-10-20T13:09:59.017Z,7.15
2022-10-20T13:12:04.801Z,7.70
2022-10-20T13:14:12.588Z,8.48
2022-10-20T13:16:20.345Z,8.60
2022-10-20T13:18:27.962Z,8.43
2022-10-20T13:20:46.810Z,8.38
2022-10-20T13:22:53.028Z,8.60
2022-10-20T13:24:56.848Z,8.40
2022-10-20T13:27:10.235Z,8.45
2022-10-20T13:29:19.160Z,8.60
2022-10-20T13:31:33.013Z,7.38
2022-10-20T13:34:03.794Z,7.78
2022-10-20T13:36:19.199Z,7.90
2022-10-20T13:38:31.227Z,7.78
2022-10-20T13:40:39.703Z,3.78
2022-10-20T13:42:52.942Z,3.10
2022-10-20T13:45:31.732Z,1.95
2022-10-20T13:47:52.214Z,1.48
2022-10-20T13:50:11.219Z,1.40
2022-10-20T13:52:15.837Z,0.98
2022-10-20T13:54:31.785Z,1.20
2022-10-20T13:56:46.395Z,1.00
2022-10-20T13:59:17.834Z,0.80
2022-10-20T14:01:24.421Z,0.70
2022-10-20T14:03:26.351Z,1.00
2022-10-20T14:05:31.714Z,0.80
2022-10-20T14:07:41.799Z,0.57
2022-10-20T14:09:46.782Z,0.50
2022-10-20T14:11:55.939Z,0.85
2022-10-20T14:14:01.641Z,0.40
2022-10-20T14:16:16.189Z,0.52
2022-10-20T14:18:39.919Z,0.57
2022-10-20T14:20:42.012Z,0.40
2022-10-20T14:22:44.967Z,0.50
2022-10-20T14:24:48.640Z,0.70
2022-10-20T14:26:51.632Z,0.65
2022-10-20T14:28:54.471Z,0.90
2022-10-20T14:30:56.527Z,0.60
2022-10-20T14:32:58.862Z,1.00
2022-10-20T14:35:14.648Z,0.88
2022-10-20T14:37:38.132Z,1.05
2022-10-20T14:39:40.964Z,0.90
2022-10-20T14:41:46.550Z,1.50
2022-10-20T14:43:52.263Z,0.75
2022-10-20T14:46:00.567Z,0.85
2022-10-20T14:48:02.745Z,1.05
2022-10-20T14:50:05.614Z,1.10
2022-10-20T14:52:20.386Z,1.00
2022-10-20T14:54:30.303Z,1.55
2022-10-20T14:56:32.373Z,1.05
2022-10-20T14:58:54.394Z,1.13
2022-10-20T15:01:19.971Z,1.00
2022-10-20T15:03:21.915Z,0.80
2022-10-20T15:05:26.457Z,1.58
2022-10-20T15:07:35.444Z,1.00
2022-10-20T15:09:43.962Z,1.23
2022-10-20T15:11:45.746Z,0.95
2022-10-20T15:13:53.062Z,1.00
2022-10-20T15:15:55.643Z,1.15
2022-10-20T15:18:06.512Z,0.90
2022-10-20T15:20:40.411Z,0.90
2022-10-20T15:22:42.708Z,1.13
2022-10-20T15:24:46.501Z,0.60
2022-10-20T15:26:48.281Z,1.25
2022-10-20T15:28:50.535Z,0.93
2022-10-20T15:30:52.599Z,0.82
2022-10-20T15:32:54.841Z,0.70
2022-10-20T15:34:56.623Z,0.60
2022-10-20T15:37:07.649Z,0.80
2022-10-20T15:39:09.592Z,0.82
2022-10-20T15:41:28.298Z,0.85
2022-10-20T15:43:30.163Z,0.95
2022-10-20T15:45:40.693Z,1.35
2022-10-20T15:47:42.640Z,0.57
2022-10-20T15:49:44.435Z,0.57
2022-10-20T15:51:47.702Z,0.50
2022-10-20T15:53:50.169Z,0.63
2022-10-20T15:55:51.995Z,0.60
2022-10-20T15:57:54.973Z,1.20
2022-10-20T15:59:56.823Z,0.75
2022-10-20T16:01:58.628Z,0.65
2022-10-20T16:04:26.300Z,0.63
2022-10-20T16:06:28.353Z,0.68
2022-10-20T16:08:30.276Z,1.00
2022-10-20T16:10:32.215Z,0.88
2022-10-20T16:12:35.198Z,0.90
2022-10-20T16:14:38.316Z,1.10
2022-10-20T16:16:40.153Z,0.50
2022-10-20T16:18:42.052Z,0.80
2022-10-20T16:20:43.810Z,0.90
2022-10-20T16:22:45.671Z,0.93
2022-10-20T16:24:48.048Z,1.38
2022-10-20T16:26:49.924Z,1.02
2022-10-20T16:28:51.759Z,0.95
2022-10-20T16:31:02.468Z,0.77
2022-10-20T16:35:06.499Z,0.68
2022-10-20T16:37:08.594Z,1.05
2022-10-20T16:39:11.893Z,0.90
2022-10-20T16:41:15.752Z,1.00
2022-10-20T16:43:17.568Z,1.23
2022-10-20T16:45:19.418Z,0.90
2022-10-20T16:47:21.309Z,0.82
2022-10-20T16:49:23.083Z,0.85
2022-10-20T16:51:24.885Z,0.80
2022-10-20T16:53:26.686Z,0.80
2022-10-20T16:55:28.663Z,1.20
2022-10-20T16:57:38.120Z,0.90
2022-10-20T16:59:41.409Z,1.00
2022-10-20T17:01:43.305Z,0.82
2022-10-20T17:03:47.868Z,0.93
2022-10-20T17:05:57.417Z,0.93
2022-10-20T17:07:59.234Z,0.50
2022-10-20T17:10:00.994Z,0.80
2022-10-20T17:12:02.855Z,0.65
2022-10-20T17:14:04.710Z,0.82
2022-10-20T17:16:18.131Z,0.50
2022-10-20T17:18:21.001Z,0.70
2022-10-20T17:20:22.936Z,1.30
2022-10-20T17:22:24.813Z,1.10
2022-10-20T17:24:26.693Z,1.05
2022-10-20T17:26:33.365Z,1.17
2022-10-20T17:28:37.453Z,1.00
2022-10-20T17:30:46.547Z,0.93
2022-10-20T17:32:48.288Z,1.10
2022-10-20T17:34:50.156Z,1.20
2022-10-20T17:37:01.942Z,1.38
2022-10-20T17:39:11.038Z,1.40
2022-10-20T17:41:15.624Z,1.50
2022-10-20T17:43:18.835Z,1.67
2022-10-20T17:45:20.745Z,1.35
2022-10-20T17:47:22.486Z,1.15
2022-10-20T17:49:24.318Z,0.85
2022-10-20T17:51:29.088Z,1.55
2022-10-20T17:53:35.547Z,1.55
2022-10-20T17:55:37.372Z,1.30
2022-10-20T17:57:39.234Z,2.17
2022-10-20T17:59:52.427Z,1.55
2022-10-20T18:01:56.636Z,1.33
2022-10-20T18:04:04.996Z,1.23
2022-10-20T18:06:10.817Z,14.75
2022-10-20T18:08:12.809Z,2.70
2022-10-20T18:10:15.034Z,1.13
2022-10-20T18:12:16.929Z,0.90
2022-10-20T18:14:19.244Z,1.17
2022-10-20T18:16:21.602Z,1.58
2022-10-20T18:18:23.502Z,1.60
2022-10-20T18:20:25.184Z,2.30
2022-10-20T18:22:27.585Z,1.83
2022-10-20T18:24:30.164Z,1.67
2022-10-20T18:26:35.762Z,2.10
2022-10-20T18:28:43.096Z,2.03
2022-10-20T18:30:47.477Z,2.55
2022-10-20T18:32:49.118Z,2.63
2022-10-20T18:34:50.935Z,2.50
2022-10-20T18:37:03.664Z,2.28
2022-10-20T18:39:06.222Z,2.70
2022-10-20T18:41:09.008Z,2.63
2022-10-20T18:43:10.668Z,2.58
2022-10-20T18:45:12.328Z,2.15
2022-10-20T18:47:13.963Z,2.33
2022-10-20T18:49:19.775Z,2.00
2022-10-20T18:51:22.118Z,2.35
2022-10-20T18:53:24.768Z,2.33
2022-10-20T18:55:26.512Z,1.98
2022-10-20T18:57:31.301Z,2.72
2022-10-20T18:59:33.137Z,2.42
2022-10-20T19:01:37.653Z,2.42
2022-10-20T19:03:40.678Z,2.67
2022-10-20T19:05:42.358Z,2.80
2022-10-20T19:07:44.043Z,2.45
2022-10-20T19:09:45.877Z,3.15
2022-10-20T19:13:56.056Z,2.85
2022-10-20T19:15:59.596Z,3.83
2022-10-20T19:18:01.740Z,3.08
2022-10-20T19:20:03.780Z,4.43
2022-10-20T19:22:05.448Z,3.55
2022-10-20T19:24:19.488Z,3.60
2022-10-20T19:26:25.393Z,3.85
2022-10-20T19:28:27.076Z,4.25
2022-10-20T19:30:34.439Z,3.47
2022-10-20T19:32:40.240Z,3.00
2022-10-20T19:34:51.287Z,3.33
2022-10-20T19:37:03.500Z,4.18
2022-10-20T19:39:10.911Z,3.40
2022-10-20T19:41:36.200Z,3.33
2022-10-20T19:43:39.139Z,3.53
2022-10-20T19:45:40.945Z,3.83
2022-10-20T19:47:42.587Z,4.20
2022-10-20T19:49:45.273Z,3.45
2022-10-20T19:51:47.170Z,3.30
2022-10-20T19:53:49.520Z,3.45
2022-10-20T19:55:51.398Z,3.42
2022-10-20T19:57:53.721Z,3.75
2022-10-20T19:59:55.505Z,4.20
2022-10-20T20:01:57.194Z,4.03
2022-10-20T20:03:59.901Z,4.50
2022-10-20T20:06:11.127Z,4.20
2022-10-20T20:08:12.927Z,3.63
2022-10-20T20:10:41.689Z,4.15
2022-10-20T20:13:05.229Z,4.28
2022-10-20T20:17:45.279Z,3.40
2022-10-20T20:20:09.622Z,3.47
2022-10-20T20:22:32.643Z,3.10
2022-10-20T20:24:34.310Z,3.10
2022-10-20T20:43:16.950Z,3.47
2022-10-20T20:45:18.605Z,3.65
2022-10-20T20:47:20.257Z,4.20
2022-10-20T20:49:21.936Z,3.42
2022-10-20T20:51:25.228Z,4.47
2022-10-20T20:53:27.186Z,4.47
2022-10-20T20:55:29.245Z,3.50
2022-10-20T20:57:30.922Z,3.78
2022-10-20T20:59:32.571Z,4.07
2022-10-20T21:01:34.371Z,4.15
2022-10-20T21:03:36.386Z,3.50
2022-10-20T21:05:38.195Z,3.92
2022-10-20T21:07:40.069Z,4.05
2022-10-20T21:09:41.873Z,3.75
2022-10-20T21:11:43.603Z,3.60
2022-10-20T21:13:46.720Z,4.13
2022-10-20T21:15:48.338Z,3.92
2022-10-20T21:17:49.965Z,3.78
2022-10-20T21:19:51.659Z,3.67
2022-10-20T21:22:01.444Z,4.18
2022-10-20T21:24:04.796Z,4.13
2022-10-20T21:26:07.963Z,5.35
2022-10-20T21:28:09.629Z,4.80
2022-10-20T21:30:11.529Z,5.18
2022-10-20T21:32:13.230Z,4.93
2022-10-20T21:34:14.984Z,5.47
2022-10-20T21:36:22.595Z,5.90
2022-10-20T21:38:29.168Z,6.57
2022-10-20T21:40:31.829Z,7.63
2022-10-20T21:42:33.466Z,6.10
2022-10-20T21:44:35.209Z,5.80
2022-10-20T21:46:47.523Z,6.35
2022-10-20T21:48:51.761Z,5.88
2022-10-20T21:50:53.396Z,5.80
2022-10-20T21:52:55.054Z,6.00
2022-10-20T21:54:56.710Z,5.78
2022-10-20T21:57:00.600Z,5.85
2022-10-20T21:59:02.838Z,5.18
2022-10-20T22:01:13.581Z,5.47
2022-10-20T22:05:16.909Z,5.18
2022-10-20T22:07:18.576Z,4.90
2022-10-20T22:09:21.507Z,4.57
2022-10-20T22:11:24.786Z,4.75
2022-10-20T22:13:26.550Z,4.72
2022-10-20T22:15:28.178Z,4.53
2022-10-20T22:17:29.855Z,4.32
2022-10-20T22:19:31.610Z,4.43
2022-10-20T22:21:37.717Z,4.88
2022-10-20T22:23:39.549Z,4.78
2022-10-20T22:25:41.251Z,5.22
2022-10-20T22:27:42.971Z,4.90
2022-10-20T22:29:44.615Z,4.68
2022-10-20T22:31:46.699Z,4.63
2022-10-20T22:33:49.237Z,4.35
2022-10-20T22:35:50.856Z,4.45
2022-10-20T22:37:53.122Z,4.90
2022-10-20T22:39:54.763Z,4.22
2022-10-20T22:41:56.459Z,3.47
2022-10-20T22:43:58.500Z,3.58
2022-10-20T22:46:00.295Z,3.80
2022-10-20T22:48:02.022Z,3.67
2022-10-20T22:50:04.147Z,3.38
2022-10-20T22:52:05.800Z,3.10
2022-10-20T22:54:08.570Z,3.38
2022-10-20T22:56:15.677Z,2.90
2022-10-20T22:58:17.430Z,3.22
2022-10-20T23:00:20.311Z,2.72
2022-10-20T23:02:22.006Z,2.50
2022-10-20T23:04:23.699Z,2.88
2022-10-20T23:06:26.402Z,2.72
2022-10-20T23:08:30.638Z,3.35
2022-10-20T23:10:34.416Z,3.00
2022-10-20T23:12:36.427Z,3.28
2022-10-20T23:14:38.300Z,2.67
2022-10-20T23:16:39.994Z,2.92
2022-10-20T23:18:41.740Z,3.28
2022-10-20T23:20:43.376Z,2.92
2022-10-20T23:22:45.738Z,2.97
2022-10-20T23:24:48.022Z,2.97
2022-10-20T23:26:51.103Z,3.10
2022-10-20T23:28:53.076Z,3.83
2022-10-20T23:31:05.914Z,3.35
2022-10-20T23:33:07.540Z,3.25
2022-10-20T23:35:09.766Z,3.42
2022-10-20T23:37:11.588Z,3.72
2022-10-20T23:39:13.281Z,5.07
2022-10-20T23:41:15.178Z,5.60
2022-10-20T23:43:16.915Z,4.00
2022-10-20T23:45:18.580Z,3.97
2022-10-20T23:47:20.322Z,4.20
2022-10-20T23:49:21.926Z,3.50
2022-10-20T23:51:23.559Z,3.35
2022-10-20T23:53:25.638Z,2.97
2022-10-20T23:55:27.286Z,2.92
2022-10-20T23:57:28.976Z,3.45
2022-10-20T23:59:30.658Z,3.15
